sensor_id;sensor_type;location;lat;lon;timestamp;P1;durP1;ratioP1;P2;durP2;ratioP2
58808;SDS011;44579;51.672;7.834;2022-08-01T00:00:05;0.10;;;0.10;;
58808;SDS011;44579;51.672;7.834;2022-08-01T00:02:34;0.10;;;0.10;;
58808;SDS011;44579;51.672;7.834;2022-08-01T00:05:05;0.00;;;0.00;;
58808;SDS011;44579;51.672;7.834;2022-08-01T00:07:36;0.00;;;0.00;;
58808;SDS011;44579;51.672;7.834;2022-08-01T00:10:03;0.20;;;0.10;;
58808;SDS011;44579;51.672;7.834;2022-08-01T00:12:32;0.00;;;0.00;;
58808;SDS011;44579;51.672;7.834;2022-08-01T00:14:59;0.00;;;0.00;;
58808;SDS011;44579;51.672;7.834;2022-08-01T00:17:26;0.00;;;0.00;;
58808;SDS011;44579;51.672;7.834;2022-08-01T00:19:53;0.00;;;0.00;;
58808;SDS011;44579;51.672;7.834;2022-08-01T00:22:20;0.00;;;0.00;;
58808;SDS011;44579;51.672;7.834;2022-08-01T00:24:47;0.00;;;0.00;;
58808;SDS011;44579;51.672;7.834;2022-08-01T00:27:14;0.00;;;0.00;;
58808;SDS011;44579;51.672;7.834;2022-08-01T00:29:41;0.00;;;0.00;;
58808;SDS011;44579;51.672;7.834;2022-08-01T00:32:29;0.10;;;0.10;;
58808;SDS011;44579;51.672;7.834;2022-08-01T00:34:59;0.00;;;0.00;;
58808;SDS011;44579;51.672;7.834;2022-08-01T00:37:26;0.00;;;0.00;;
58808;SDS011;44579;51.672;7.834;2022-08-01T00:39:53;0.00;;;0.00;;
58808;SDS011;44579;51.672;7.834;2022-08-01T00:42:20;0.00;;;0.00;;
58808;SDS011;44579;51.672;7.834;2022-08-01T00:44:47;0.25;;;0.20;;
58808;SDS011;44579;51.672;7.834;2022-08-01T00:47:14;0.10;;;0.10;;
58808;SDS011;44579;51.672;7.834;2022-08-01T00:49:41;0.00;;;0.00;;
58808;SDS011;44579;51.672;7.834;2022-08-01T00:52:07;0.00;;;0.00;;
58808;SDS011;44579;51.672;7.834;2022-08-01T00:57:02;0.00;;;0.00;;
58808;SDS011;44579;51.672;7.834;2022-08-01T00:59:29;0.00;;;0.00;;
58808;SDS011;44579;51.672;7.834;2022-08-01T01:01:57;0.00;;;0.00;;
58808;SDS011;44579;51.672;7.834;2022-08-01T01:04:24;0.00;;;0.00;;
58808;SDS011;44579;51.672;7.834;2022-08-01T01:09:23;0.00;;;0.00;;
58808;SDS011;44579;51.672;7.834;2022-08-01T01:12:10;0.00;;;0.00;;
58808;SDS011;44579;51.672;7.834;2022-08-01T01:17:41;0.00;;;0.00;;
58808;SDS011;44579;51.672;7.834;2022-08-01T01:20:17;0.10;;;0.10;;
58808;SDS011;44579;51.672;7.834;2022-08-01T01:25:28;0.00;;;0.00;;
58808;SDS011;44579;51.672;7.834;2022-08-01T01:28:17;0.00;;;0.00;;
58808;SDS011;44579;51.672;7.834;2022-08-01T01:30:48;0.00;;;0.00;;
58808;SDS011;44579;51.672;7.834;2022-08-01T01:33:19;0.00;;;0.00;;
58808;SDS011;44579;51.672;7.834;2022-08-01T01:35:49;7.78;;;1.98;;
58808;SDS011;44579;51.672;7.834;2022-08-01T01:38:21;0.00;;;0.00;;
58808;SDS011;44579;51.672;7.834;2022-08-01T01:40:50;0.00;;;0.00;;
58808;SDS011;44579;51.672;7.834;2022-08-01T01:43:19;0.03;;;0.03;;
58808;SDS011;44579;51.672;7.834;2022-08-01T01:45:54;0.00;;;0.00;;
58808;SDS011;44579;51.672;7.834;2022-08-01T01:48:22;0.00;;;0.00;;
58808;SDS011;44579;51.672;7.834;2022-08-01T01:50:50;0.10;;;0.10;;
58808;SDS011;44579;51.672;7.834;2022-08-01T01:53:19;0.10;;;0.10;;
58808;SDS011;44579;51.672;7.834;2022-08-01T01:55:50;0.00;;;0.00;;
58808;SDS011;44579;51.672;7.834;2022-08-01T01:58:19;3.70;;;2.58;;
58808;SDS011;44579;51.672;7.834;2022-08-01T02:00:48;31.83;;;11.45;;
58808;SDS011;44579;51.672;7.834;2022-08-01T02:03:17;23.42;;;11.48;;
58808;SDS011;44579;51.672;7.834;2022-08-01T02:05:46;34.75;;;13.48;;
58808;SDS011;44579;51.672;7.834;2022-08-01T02:08:15;39.40;;;17.30;;
58808;SDS011;44579;51.672;7.834;2022-08-01T02:10:45;38.80;;;17.50;;
58808;SDS011;44579;51.672;7.834;2022-08-01T02:13:32;37.28;;;15.85;;
58808;SDS011;44579;51.672;7.834;2022-08-01T02:16:01;36.28;;;16.40;;
58808;SDS011;44579;51.672;7.834;2022-08-01T02:18:30;36.70;;;15.23;;
58808;SDS011;44579;51.672;7.834;2022-08-01T02:20:58;37.83;;;18.30;;
58808;SDS011;44579;51.672;7.834;2022-08-01T02:23:28;27.35;;;12.60;;
58808;SDS011;44579;51.672;7.834;2022-08-01T02:26:00;29.85;;;13.88;;
58808;SDS011;44579;51.672;7.834;2022-08-01T02:28:45;31.45;;;13.27;;
58808;SDS011;44579;51.672;7.834;2022-08-01T02:31:28;39.08;;;14.25;;
58808;SDS011;44579;51.672;7.834;2022-08-01T02:34:02;31.08;;;10.80;;
58808;SDS011;44579;51.672;7.834;2022-08-01T02:36:35;25.25;;;10.85;;
58808;SDS011;44579;51.672;7.834;2022-08-01T02:39:08;30.33;;;11.52;;
58808;SDS011;44579;51.672;7.834;2022-08-01T02:41:38;28.63;;;12.25;;
58808;SDS011;44579;51.672;7.834;2022-08-01T02:44:09;31.05;;;11.77;;
58808;SDS011;44579;51.672;7.834;2022-08-01T02:46:41;30.67;;;12.68;;
58808;SDS011;44579;51.672;7.834;2022-08-01T02:49:15;31.70;;;12.93;;
58808;SDS011;44579;51.672;7.834;2022-08-01T02:51:45;25.95;;;10.43;;
58808;SDS011;44579;51.672;7.834;2022-08-01T02:54:14;29.63;;;10.85;;
58808;SDS011;44579;51.672;7.834;2022-08-01T02:56:43;24.60;;;9.82;;
58808;SDS011;44579;51.672;7.834;2022-08-01T02:59:15;28.33;;;10.10;;
58808;SDS011;44579;51.672;7.834;2022-08-01T03:01:47;31.67;;;11.73;;
58808;SDS011;44579;51.672;7.834;2022-08-01T03:04:16;29.80;;;10.35;;
58808;SDS011;44579;51.672;7.834;2022-08-01T03:06:45;30.48;;;12.63;;
58808;SDS011;44579;51.672;7.834;2022-08-01T03:09:14;25.17;;;11.02;;
58808;SDS011;44579;51.672;7.834;2022-08-01T03:11:42;28.25;;;12.57;;
58808;SDS011;44579;51.672;7.834;2022-08-01T03:14:10;30.20;;;12.77;;
58808;SDS011;44579;51.672;7.834;2022-08-01T03:16:39;33.65;;;13.93;;
58808;SDS011;44579;51.672;7.834;2022-08-01T03:19:08;36.53;;;14.20;;
58808;SDS011;44579;51.672;7.834;2022-08-01T03:21:37;39.72;;;15.00;;
58808;SDS011;44579;51.672;7.834;2022-08-01T03:24:05;36.95;;;14.18;;
58808;SDS011;44579;51.672;7.834;2022-08-01T03:26:34;36.95;;;14.73;;
58808;SDS011;44579;51.672;7.834;2022-08-01T03:29:05;34.38;;;12.88;;
58808;SDS011;44579;51.672;7.834;2022-08-01T03:31:36;35.33;;;14.13;;
58808;SDS011;44579;51.672;7.834;2022-08-01T03:34:05;40.03;;;13.68;;
58808;SDS011;44579;51.672;7.834;2022-08-01T03:36:33;35.35;;;13.38;;
58808;SDS011;44579;51.672;7.834;2022-08-01T03:39:15;38.97;;;14.35;;
58808;SDS011;44579;51.672;7.834;2022-08-01T03:41:46;40.83;;;15.85;;
58808;SDS011;44579;51.672;7.834;2022-08-01T03:44:30;36.88;;;14.93;;
58808;SDS011;44579;51.672;7.834;2022-08-01T03:47:00;40.38;;;13.25;;
58808;SDS011;44579;51.672;7.834;2022-08-01T03:49:30;37.58;;;13.15;;
58808;SDS011;44579;51.672;7.834;2022-08-01T03:52:01;43.53;;;15.90;;
58808;SDS011;44579;51.672;7.834;2022-08-01T03:54:31;34.75;;;14.75;;
58808;SDS011;44579;51.672;7.834;2022-08-01T03:57:02;38.85;;;12.75;;
58808;SDS011;44579;51.672;7.834;2022-08-01T03:59:30;34.72;;;12.90;;
58808;SDS011;44579;51.672;7.834;2022-08-01T04:01:58;39.70;;;13.80;;
58808;SDS011;44579;51.672;7.834;2022-08-01T04:04:25;42.38;;;15.45;;
58808;SDS011;44579;51.672;7.834;2022-08-01T04:06:52;45.10;;;14.82;;
58808;SDS011;44579;51.672;7.834;2022-08-01T04:09:20;40.33;;;14.02;;
58808;SDS011;44579;51.672;7.834;2022-08-01T04:11:48;38.35;;;14.45;;
58808;SDS011;44579;51.672;7.834;2022-08-01T04:14:15;42.22;;;13.85;;
58808;SDS011;44579;51.672;7.834;2022-08-01T04:16:42;35.75;;;13.65;;
58808;SDS011;44579;51.672;7.834;2022-08-01T04:19:08;32.38;;;13.13;;
58808;SDS011;44579;51.672;7.834;2022-08-01T04:21:35;32.38;;;14.10;;
58808;SDS011;44579;51.672;7.834;2022-08-01T04:24:05;29.98;;;11.48;;
58808;SDS011;44579;51.672;7.834;2022-08-01T04:26:35;32.22;;;9.55;;
58808;SDS011;44579;51.672;7.834;2022-08-01T04:29:03;27.35;;;10.00;;
58808;SDS011;44579;51.672;7.834;2022-08-01T04:31:32;30.73;;;11.10;;
58808;SDS011;44579;51.672;7.834;2022-08-01T04:34:01;21.88;;;10.35;;
58808;SDS011;44579;51.672;7.834;2022-08-01T04:36:31;31.27;;;11.73;;
58808;SDS011;44579;51.672;7.834;2022-08-01T04:39:00;26.95;;;9.68;;
58808;SDS011;44579;51.672;7.834;2022-08-01T04:41:30;29.73;;;10.93;;
58808;SDS011;44579;51.672;7.834;2022-08-01T04:43:58;26.75;;;10.73;;
58808;SDS011;44579;51.672;7.834;2022-08-01T04:46:26;25.48;;;9.45;;
58808;SDS011;44579;51.672;7.834;2022-08-01T04:48:56;23.48;;;9.32;;
58808;SDS011;44579;51.672;7.834;2022-08-01T04:51:23;31.20;;;10.20;;
58808;SDS011;44579;51.672;7.834;2022-08-01T04:53:50;22.65;;;10.48;;
58808;SDS011;44579;51.672;7.834;2022-08-01T04:56:18;27.38;;;11.00;;
58808;SDS011;44579;51.672;7.834;2022-08-01T04:58:47;22.98;;;10.60;;
58808;SDS011;44579;51.672;7.834;2022-08-01T05:01:14;35.35;;;11.07;;
58808;SDS011;44579;51.672;7.834;2022-08-01T05:03:41;27.10;;;10.40;;
58808;SDS011;44579;51.672;7.834;2022-08-01T05:06:08;22.80;;;10.38;;
58808;SDS011;44579;51.672;7.834;2022-08-01T05:08:35;28.52;;;11.55;;
58808;SDS011;44579;51.672;7.834;2022-08-01T05:11:02;22.58;;;9.80;;
58808;SDS011;44579;51.672;7.834;2022-08-01T05:13:29;30.02;;;8.48;;
58808;SDS011;44579;51.672;7.834;2022-08-01T05:15:56;27.65;;;10.63;;
58808;SDS011;44579;51.672;7.834;2022-08-01T05:18:24;26.10;;;9.18;;
58808;SDS011;44579;51.672;7.834;2022-08-01T05:20:54;23.20;;;9.63;;
58808;SDS011;44579;51.672;7.834;2022-08-01T05:23:21;21.13;;;7.60;;
58808;SDS011;44579;51.672;7.834;2022-08-01T05:26:08;34.72;;;9.50;;
58808;SDS011;44579;51.672;7.834;2022-08-01T05:28:35;25.33;;;10.50;;
58808;SDS011;44579;51.672;7.834;2022-08-01T05:31:02;23.52;;;8.15;;
58808;SDS011;44579;51.672;7.834;2022-08-01T05:33:29;23.77;;;7.90;;
58808;SDS011;44579;51.672;7.834;2022-08-01T05:35:56;24.30;;;6.80;;
58808;SDS011;44579;51.672;7.834;2022-08-01T05:38:23;24.02;;;7.25;;
58808;SDS011;44579;51.672;7.834;2022-08-01T05:40:50;24.17;;;7.32;;
58808;SDS011;44579;51.672;7.834;2022-08-01T05:43:17;23.80;;;8.70;;
58808;SDS011;44579;51.672;7.834;2022-08-01T05:45:45;22.60;;;8.40;;
58808;SDS011;44579;51.672;7.834;2022-08-01T05:48:12;22.55;;;8.52;;
58808;SDS011;44579;51.672;7.834;2022-08-01T05:50:38;16.13;;;8.13;;
58808;SDS011;44579;51.672;7.834;2022-08-01T05:53:05;22.98;;;8.27;;
58808;SDS011;44579;51.672;7.834;2022-08-01T05:55:32;17.77;;;8.00;;
58808;SDS011;44579;51.672;7.834;2022-08-01T05:57:59;18.30;;;7.57;;
58808;SDS011;44579;51.672;7.834;2022-08-01T06:00:26;19.33;;;6.88;;
58808;SDS011;44579;51.672;7.834;2022-08-01T06:02:52;20.38;;;7.65;;
58808;SDS011;44579;51.672;7.834;2022-08-01T06:05:19;22.30;;;7.97;;
58808;SDS011;44579;51.672;7.834;2022-08-01T06:07:46;19.25;;;7.97;;
58808;SDS011;44579;51.672;7.834;2022-08-01T06:10:13;21.63;;;6.93;;
58808;SDS011;44579;51.672;7.834;2022-08-01T06:12:40;15.10;;;6.93;;
58808;SDS011;44579;51.672;7.834;2022-08-01T06:15:07;15.65;;;6.40;;
58808;SDS011;44579;51.672;7.834;2022-08-01T06:17:34;22.83;;;7.68;;
58808;SDS011;44579;51.672;7.834;2022-08-01T06:20:01;17.40;;;6.88;;
58808;SDS011;44579;51.672;7.834;2022-08-01T06:22:29;16.90;;;6.72;;
58808;SDS011;44579;51.672;7.834;2022-08-01T06:24:56;21.02;;;7.57;;
58808;SDS011;44579;51.672;7.834;2022-08-01T06:27:23;13.98;;;6.47;;
58808;SDS011;44579;51.672;7.834;2022-08-01T06:29:52;20.67;;;6.30;;
58808;SDS011;44579;51.672;7.834;2022-08-01T06:32:23;28.55;;;7.72;;
58808;SDS011;44579;51.672;7.834;2022-08-01T06:34:53;18.98;;;7.47;;
58808;SDS011;44579;51.672;7.834;2022-08-01T06:37:21;16.88;;;6.45;;
58808;SDS011;44579;51.672;7.834;2022-08-01T06:39:48;16.08;;;7.10;;
58808;SDS011;44579;51.672;7.834;2022-08-01T06:42:18;20.30;;;6.85;;
58808;SDS011;44579;51.672;7.834;2022-08-01T06:44:45;18.25;;;6.78;;
58808;SDS011;44579;51.672;7.834;2022-08-01T06:47:12;15.10;;;6.28;;
58808;SDS011;44579;51.672;7.834;2022-08-01T06:49:38;12.48;;;5.28;;
58808;SDS011;44579;51.672;7.834;2022-08-01T06:52:05;13.23;;;5.25;;
58808;SDS011;44579;51.672;7.834;2022-08-01T06:54:33;17.90;;;6.05;;
58808;SDS011;44579;51.672;7.834;2022-08-01T06:56:59;11.98;;;5.05;;
58808;SDS011;44579;51.672;7.834;2022-08-01T06:59:27;12.98;;;5.38;;
58808;SDS011;44579;51.672;7.834;2022-08-01T07:01:53;12.73;;;4.53;;
58808;SDS011;44579;51.672;7.834;2022-08-01T07:04:20;10.45;;;3.92;;
58808;SDS011;44579;51.672;7.834;2022-08-01T07:06:47;12.32;;;4.25;;
58808;SDS011;44579;51.672;7.834;2022-08-01T07:09:14;7.55;;;3.30;;
58808;SDS011;44579;51.672;7.834;2022-08-01T07:11:41;5.57;;;2.80;;
58808;SDS011;44579;51.672;7.834;2022-08-01T07:14:09;4.45;;;2.15;;
58808;SDS011;44579;51.672;7.834;2022-08-01T07:16:35;8.68;;;2.65;;
58808;SDS011;44579;51.672;7.834;2022-08-01T07:19:03;7.97;;;2.50;;
58808;SDS011;44579;51.672;7.834;2022-08-01T07:21:30;10.95;;;3.03;;
58808;SDS011;44579;51.672;7.834;2022-08-01T07:24:06;8.38;;;2.88;;
58808;SDS011;44579;51.672;7.834;2022-08-01T07:26:43;12.55;;;3.20;;
58808;SDS011;44579;51.672;7.834;2022-08-01T07:29:20;6.72;;;3.08;;
58808;SDS011;44579;51.672;7.834;2022-08-01T07:31:47;7.20;;;3.00;;
58808;SDS011;44579;51.672;7.834;2022-08-01T07:34:15;9.70;;;3.58;;
58808;SDS011;44579;51.672;7.834;2022-08-01T07:36:42;10.38;;;3.30;;
58808;SDS011;44579;51.672;7.834;2022-08-01T07:39:09;13.07;;;3.83;;
58808;SDS011;44579;51.672;7.834;2022-08-01T07:41:36;6.70;;;3.17;;
58808;SDS011;44579;51.672;7.834;2022-08-01T07:44:22;4.95;;;2.58;;
58808;SDS011;44579;51.672;7.834;2022-08-01T07:46:53;5.90;;;2.75;;
58808;SDS011;44579;51.672;7.834;2022-08-01T07:49:20;6.47;;;2.55;;
58808;SDS011;44579;51.672;7.834;2022-08-01T07:51:48;4.93;;;2.47;;
58808;SDS011;44579;51.672;7.834;2022-08-01T07:54:29;7.10;;;2.70;;
58808;SDS011;44579;51.672;7.834;2022-08-01T07:57:00;5.25;;;2.50;;
58808;SDS011;44579;51.672;7.834;2022-08-01T07:59:27;4.45;;;2.22;;
58808;SDS011;44579;51.672;7.834;2022-08-01T08:01:54;9.70;;;1.95;;
58808;SDS011;44579;51.672;7.834;2022-08-01T08:04:21;3.22;;;1.83;;
58808;SDS011;44579;51.672;7.834;2022-08-01T08:06:48;13.25;;;2.60;;
58808;SDS011;44579;51.672;7.834;2022-08-01T08:09:15;5.85;;;2.60;;
58808;SDS011;44579;51.672;7.834;2022-08-01T08:11:45;5.55;;;2.42;;
58808;SDS011;44579;51.672;7.834;2022-08-01T08:14:18;12.23;;;5.28;;
58808;SDS011;44579;51.672;7.834;2022-08-01T08:16:45;5.45;;;2.50;;
58808;SDS011;44579;51.672;7.834;2022-08-01T08:19:12;10.82;;;2.63;;
58808;SDS011;44579;51.672;7.834;2022-08-01T08:21:39;12.07;;;2.45;;
58808;SDS011;44579;51.672;7.834;2022-08-01T08:24:07;6.45;;;2.33;;
58808;SDS011;44579;51.672;7.834;2022-08-01T08:26:56;7.25;;;3.03;;
58808;SDS011;44579;51.672;7.834;2022-08-01T08:29:25;8.63;;;3.70;;
58808;SDS011;44579;51.672;7.834;2022-08-01T08:31:53;10.20;;;2.58;;
58808;SDS011;44579;51.672;7.834;2022-08-01T08:34:22;6.40;;;2.95;;
58808;SDS011;44579;51.672;7.834;2022-08-01T08:36:49;7.32;;;2.90;;
58808;SDS011;44579;51.672;7.834;2022-08-01T08:39:17;9.77;;;4.22;;
58808;SDS011;44579;51.672;7.834;2022-08-01T08:41:45;7.20;;;3.80;;
58808;SDS011;44579;51.672;7.834;2022-08-01T08:44:14;7.80;;;2.78;;
58808;SDS011;44579;51.672;7.834;2022-08-01T08:46:44;7.15;;;3.63;;
58808;SDS011;44579;51.672;7.834;2022-08-01T08:49:21;7.13;;;4.00;;
58808;SDS011;44579;51.672;7.834;2022-08-01T08:51:50;9.55;;;3.35;;
58808;SDS011;44579;51.672;7.834;2022-08-01T08:54:19;6.65;;;3.38;;
58808;SDS011;44579;51.672;7.834;2022-08-01T08:56:57;7.70;;;4.15;;
58808;SDS011;44579;51.672;7.834;2022-08-01T08:59:26;9.20;;;3.95;;
58808;SDS011;44579;51.672;7.834;2022-08-01T09:01:54;11.93;;;3.40;;
58808;SDS011;44579;51.672;7.834;2022-08-01T09:06:52;11.30;;;4.28;;
58808;SDS011;44579;51.672;7.834;2022-08-01T09:09:19;8.90;;;4.57;;
58808;SDS011;44579;51.672;7.834;2022-08-01T09:11:46;9.07;;;4.65;;
58808;SDS011;44579;51.672;7.834;2022-08-01T09:14:32;9.25;;;3.28;;
58808;SDS011;44579;51.672;7.834;2022-08-01T09:17:05;14.32;;;5.07;;
58808;SDS011;44579;51.672;7.834;2022-08-01T09:19:38;9.23;;;4.07;;
58808;SDS011;44579;51.672;7.834;2022-08-01T09:22:09;12.00;;;4.10;;
58808;SDS011;44579;51.672;7.834;2022-08-01T09:24:38;6.78;;;4.07;;
58808;SDS011;44579;51.672;7.834;2022-08-01T09:27:17;8.48;;;3.35;;
58808;SDS011;44579;51.672;7.834;2022-08-01T09:29:53;7.78;;;3.58;;
58808;SDS011;44579;51.672;7.834;2022-08-01T09:32:32;10.30;;;4.55;;
58808;SDS011;44579;51.672;7.834;2022-08-01T09:43:18;8.00;;;3.80;;
58808;SDS011;44579;51.672;7.834;2022-08-01T09:45:46;5.18;;;3.13;;
58808;SDS011;44579;51.672;7.834;2022-08-01T09:48:16;8.35;;;3.95;;
58808;SDS011;44579;51.672;7.834;2022-08-01T09:50:44;10.23;;;4.38;;
58808;SDS011;44579;51.672;7.834;2022-08-01T09:53:13;11.25;;;5.07;;
58808;SDS011;44579;51.672;7.834;2022-08-01T09:56:00;9.20;;;4.68;;
58808;SDS011;44579;51.672;7.834;2022-08-01T09:58:48;8.70;;;4.75;;
58808;SDS011;44579;51.672;7.834;2022-08-01T10:01:24;10.30;;;4.70;;
58808;SDS011;44579;51.672;7.834;2022-08-01T10:04:08;9.60;;;4.57;;
58808;SDS011;44579;51.672;7.834;2022-08-01T10:06:38;8.55;;;4.82;;
58808;SDS011;44579;51.672;7.834;2022-08-01T10:09:09;6.43;;;4.20;;
58808;SDS011;44579;51.672;7.834;2022-08-01T10:11:39;9.43;;;4.13;;
58808;SDS011;44579;51.672;7.834;2022-08-01T10:14:11;10.15;;;4.05;;
58808;SDS011;44579;51.672;7.834;2022-08-01T10:16:43;12.48;;;4.82;;
58808;SDS011;44579;51.672;7.834;2022-08-01T10:19:22;7.70;;;2.92;;
58808;SDS011;44579;51.672;7.834;2022-08-01T10:21:54;8.05;;;3.42;;
58808;SDS011;44579;51.672;7.834;2022-08-01T10:24:26;5.60;;;3.45;;
58808;SDS011;44579;51.672;7.834;2022-08-01T10:26:55;6.35;;;3.00;;
58808;SDS011;44579;51.672;7.834;2022-08-01T10:29:35;8.13;;;3.38;;
58808;SDS011;44579;51.672;7.834;2022-08-01T10:32:35;6.55;;;3.40;;
58808;SDS011;44579;51.672;7.834;2022-08-01T10:35:06;8.75;;;2.20;;
58808;SDS011;44579;51.672;7.834;2022-08-01T10:37:40;4.85;;;2.22;;
58808;SDS011;44579;51.672;7.834;2022-08-01T10:40:17;2.38;;;1.70;;
58808;SDS011;44579;51.672;7.834;2022-08-01T10:42:56;2.63;;;1.58;;
58808;SDS011;44579;51.672;7.834;2022-08-01T10:45:23;1.45;;;0.85;;
58808;SDS011;44579;51.672;7.834;2022-08-01T10:48:12;2.50;;;1.70;;
58808;SDS011;44579;51.672;7.834;2022-08-01T10:50:48;4.63;;;2.05;;
58808;SDS011;44579;51.672;7.834;2022-08-01T10:53:16;2.03;;;1.58;;
58808;SDS011;44579;51.672;7.834;2022-08-01T11:01:25;3.85;;;0.75;;
58808;SDS011;44579;51.672;7.834;2022-08-01T11:04:13;1.83;;;0.70;;
58808;SDS011;44579;51.672;7.834;2022-08-01T11:06:49;1.45;;;1.02;;
58808;SDS011;44579;51.672;7.834;2022-08-01T11:09:31;4.78;;;1.50;;
58808;SDS011;44579;51.672;7.834;2022-08-01T11:12:17;1.85;;;1.00;;
58808;SDS011;44579;51.672;7.834;2022-08-01T11:17:38;1.10;;;0.93;;
58808;SDS011;44579;51.672;7.834;2022-08-01T11:20:43;5.20;;;1.30;;
58808;SDS011;44579;51.672;7.834;2022-08-01T11:23:47;3.22;;;1.80;;
58808;SDS011;44579;51.672;7.834;2022-08-01T11:26:15;2.97;;;1.63;;
58808;SDS011;44579;51.672;7.834;2022-08-01T11:28:43;3.83;;;1.63;;
58808;SDS011;44579;51.672;7.834;2022-08-01T11:31:32;2.72;;;1.45;;
58808;SDS011;44579;51.672;7.834;2022-08-01T11:34:03;2.67;;;1.40;;
58808;SDS011;44579;51.672;7.834;2022-08-01T11:36:30;2.53;;;1.42;;
58808;SDS011;44579;51.672;7.834;2022-08-01T11:39:18;4.20;;;1.33;;
58808;SDS011;44579;51.672;7.834;2022-08-01T11:41:45;1.65;;;0.73;;
58808;SDS011;44579;51.672;7.834;2022-08-01T11:44:17;6.18;;;0.90;;
58808;SDS011;44579;51.672;7.834;2022-08-01T11:46:51;2.75;;;0.95;;
58808;SDS011;44579;51.672;7.834;2022-08-01T11:52:15;7.40;;;1.40;;
58808;SDS011;44579;51.672;7.834;2022-08-01T11:54:54;1.55;;;1.02;;
58808;SDS011;44579;51.672;7.834;2022-08-01T11:57:24;1.25;;;0.80;;
58808;SDS011;44579;51.672;7.834;2022-08-01T12:00:01;4.13;;;1.13;;
58808;SDS011;44579;51.672;7.834;2022-08-01T12:02:40;4.00;;;1.40;;
58808;SDS011;44579;51.672;7.834;2022-08-01T12:05:08;1.38;;;0.80;;
58808;SDS011;44579;51.672;7.834;2022-08-01T12:07:40;1.67;;;1.00;;
58808;SDS011;44579;51.672;7.834;2022-08-01T12:10:12;4.18;;;1.40;;
58808;SDS011;44579;51.672;7.834;2022-08-01T12:12:45;2.70;;;1.40;;
58808;SDS011;44579;51.672;7.834;2022-08-01T12:15:14;3.35;;;1.20;;
58808;SDS011;44579;51.672;7.834;2022-08-01T12:17:42;1.10;;;0.90;;
58808;SDS011;44579;51.672;7.834;2022-08-01T12:20:23;3.20;;;1.20;;
58808;SDS011;44579;51.672;7.834;2022-08-01T12:22:54;3.75;;;1.10;;
58808;SDS011;44579;51.672;7.834;2022-08-01T12:25:22;1.63;;;1.00;;
58808;SDS011;44579;51.672;7.834;2022-08-01T12:27:50;3.50;;;0.73;;
58808;SDS011;44579;51.672;7.834;2022-08-01T12:30:22;1.45;;;0.88;;
58808;SDS011;44579;51.672;7.834;2022-08-01T12:32:50;1.63;;;1.00;;
58808;SDS011;44579;51.672;7.834;2022-08-01T12:35:18;1.85;;;1.10;;
58808;SDS011;44579;51.672;7.834;2022-08-01T12:37:50;1.48;;;0.90;;
58808;SDS011;44579;51.672;7.834;2022-08-01T12:42:53;3.25;;;0.95;;
58808;SDS011;44579;51.672;7.834;2022-08-01T12:45:24;7.65;;;1.00;;
58808;SDS011;44579;51.672;7.834;2022-08-01T12:48:05;4.18;;;0.88;;
58808;SDS011;44579;51.672;7.834;2022-08-01T12:50:39;2.58;;;0.95;;
58808;SDS011;44579;51.672;7.834;2022-08-01T12:53:08;3.28;;;1.00;;
58808;SDS011;44579;51.672;7.834;2022-08-01T12:55:46;1.52;;;0.70;;
58808;SDS011;44579;51.672;7.834;2022-08-01T12:58:32;4.43;;;1.25;;
58808;SDS011;44579;51.672;7.834;2022-08-01T13:01:04;2.33;;;1.08;;
58808;SDS011;44579;51.672;7.834;2022-08-01T13:03:33;7.13;;;1.38;;
58808;SDS011;44579;51.672;7.834;2022-08-01T13:06:00;3.42;;;1.20;;
58808;SDS011;44579;51.672;7.834;2022-08-01T13:08:31;2.13;;;1.10;;
58808;SDS011;44579;51.672;7.834;2022-08-01T13:11:10;5.70;;;1.35;;
58808;SDS011;44579;51.672;7.834;2022-08-01T13:16:19;3.83;;;0.93;;
58808;SDS011;44579;51.672;7.834;2022-08-01T13:19:04;2.50;;;1.33;;
58808;SDS011;44579;51.672;7.834;2022-08-01T13:21:33;5.65;;;1.40;;
58808;SDS011;44579;51.672;7.834;2022-08-01T13:24:23;4.32;;;1.30;;
58808;SDS011;44579;51.672;7.834;2022-08-01T13:27:00;2.53;;;1.15;;
58808;SDS011;44579;51.672;7.834;2022-08-01T13:29:31;3.95;;;1.25;;
58808;SDS011;44579;51.672;7.834;2022-08-01T13:32:00;2.20;;;1.63;;
58808;SDS011;44579;51.672;7.834;2022-08-01T13:35:08;9.45;;;1.90;;
58808;SDS011;44579;51.672;7.834;2022-08-01T13:37:39;4.13;;;1.20;;
58808;SDS011;44579;51.672;7.834;2022-08-01T13:40:09;2.35;;;1.58;;
58808;SDS011;44579;51.672;7.834;2022-08-01T13:42:36;2.90;;;1.52;;
58808;SDS011;44579;51.672;7.834;2022-08-01T13:45:05;2.75;;;1.10;;
58808;SDS011;44579;51.672;7.834;2022-08-01T13:47:40;2.80;;;1.20;;
58808;SDS011;44579;51.672;7.834;2022-08-01T13:50:27;3.45;;;1.50;;
58808;SDS011;44579;51.672;7.834;2022-08-01T13:52:54;4.13;;;1.90;;
58808;SDS011;44579;51.672;7.834;2022-08-01T13:55:21;6.63;;;1.60;;
58808;SDS011;44579;51.672;7.834;2022-08-01T13:57:48;3.78;;;1.40;;
58808;SDS011;44579;51.672;7.834;2022-08-01T14:00:16;2.53;;;1.10;;
58808;SDS011;44579;51.672;7.834;2022-08-01T14:02:43;1.90;;;1.42;;
58808;SDS011;44579;51.672;7.834;2022-08-01T14:05:09;9.85;;;1.35;;
58808;SDS011;44579;51.672;7.834;2022-08-01T14:07:37;6.50;;;1.30;;
58808;SDS011;44579;51.672;7.834;2022-08-01T14:10:06;2.63;;;1.15;;
58808;SDS011;44579;51.672;7.834;2022-08-01T14:12:45;2.17;;;1.30;;
58808;SDS011;44579;51.672;7.834;2022-08-01T14:15:13;2.50;;;1.00;;
58808;SDS011;44579;51.672;7.834;2022-08-01T14:18:01;4.05;;;1.50;;
58808;SDS011;44579;51.672;7.834;2022-08-01T14:20:31;1.15;;;0.90;;
58808;SDS011;44579;51.672;7.834;2022-08-01T14:22:58;4.43;;;1.25;;
58808;SDS011;44579;51.672;7.834;2022-08-01T14:28:13;1.33;;;0.70;;
58808;SDS011;44579;51.672;7.834;2022-08-01T14:30:40;3.45;;;1.60;;
58808;SDS011;44579;51.672;7.834;2022-08-01T14:33:11;5.45;;;1.50;;
58808;SDS011;44579;51.672;7.834;2022-08-01T14:35:39;2.92;;;1.40;;
58808;SDS011;44579;51.672;7.834;2022-08-01T14:38:26;2.40;;;1.08;;
58808;SDS011;44579;51.672;7.834;2022-08-01T14:40:58;2.33;;;1.15;;
58808;SDS011;44579;51.672;7.834;2022-08-01T14:43:25;1.75;;;1.10;;
58808;SDS011;44579;51.672;7.834;2022-08-01T14:45:59;1.73;;;1.02;;
58808;SDS011;44579;51.672;7.834;2022-08-01T14:48:30;3.60;;;1.25;;
58808;SDS011;44579;51.672;7.834;2022-08-01T14:53:25;4.05;;;2.45;;
58808;SDS011;44579;51.672;7.834;2022-08-01T14:55:52;7.20;;;1.60;;
58808;SDS011;44579;51.672;7.834;2022-08-01T14:58:18;5.15;;;1.58;;
58808;SDS011;44579;51.672;7.834;2022-08-01T15:00:45;2.13;;;1.10;;
58808;SDS011;44579;51.672;7.834;2022-08-01T15:03:12;4.72;;;1.80;;
58808;SDS011;44579;51.672;7.834;2022-08-01T15:05:39;3.97;;;1.80;;
58808;SDS011;44579;51.672;7.834;2022-08-01T15:08:06;5.15;;;2.00;;
58808;SDS011;44579;51.672;7.834;2022-08-01T15:10:33;2.38;;;1.73;;
58808;SDS011;44579;51.672;7.834;2022-08-01T15:13:00;4.38;;;2.40;;
58808;SDS011;44579;51.672;7.834;2022-08-01T15:15:27;7.20;;;2.10;;
58808;SDS011;44579;51.672;7.834;2022-08-01T15:20:22;5.38;;;2.58;;
58808;SDS011;44579;51.672;7.834;2022-08-01T15:22:50;3.95;;;2.05;;
58808;SDS011;44579;51.672;7.834;2022-08-01T15:25:16;7.85;;;2.45;;
58808;SDS011;44579;51.672;7.834;2022-08-01T15:27:43;7.70;;;2.30;;
58808;SDS011;44579;51.672;7.834;2022-08-01T15:30:10;6.65;;;2.20;;
58808;SDS011;44579;51.672;7.834;2022-08-01T15:37:32;3.67;;;2.10;;
58808;SDS011;44579;51.672;7.834;2022-08-01T15:40:02;6.38;;;2.60;;
58808;SDS011;44579;51.672;7.834;2022-08-01T15:42:29;5.80;;;2.00;;
58808;SDS011;44579;51.672;7.834;2022-08-01T15:44:55;5.28;;;1.98;;
58808;SDS011;44579;51.672;7.834;2022-08-01T15:47:22;3.58;;;1.90;;
58808;SDS011;44579;51.672;7.834;2022-08-01T15:49:50;6.63;;;2.00;;
58808;SDS011;44579;51.672;7.834;2022-08-01T15:52:18;6.40;;;1.92;;